createdAt,value
2018-10-18T00:01:25.274Z,98856.02
2018-10-18T00:03:54.418Z,98852.03
2018-10-18T00:06:23.580Z,98843.47
2018-10-18T00:08:52.751Z,98850.13
2018-10-18T00:11:21.968Z,98846.41
2018-10-18T00:13:51.134Z,98845.84
2018-10-18T00:16:20.352Z,98852.48
2018-10-18T00:18:49.544Z,98847.11
2018-10-18T00:21:18.721Z,98855.55
2018-10-18T00:23:47.891Z,98855.95
2018-10-18T00:26:17.106Z,98859.70
2018-10-18T00:28:46.225Z,98857.65
2018-10-18T00:31:15.382Z,98854.98
2018-10-18T00:33:44.614Z,98860.55
2018-10-18T00:36:13.795Z,98862.70
2018-10-18T00:38:42.920Z,98858.41
2018-10-18T00:41:12.072Z,98858.41
2018-10-18T00:43:41.213Z,98855.91
2018-10-18T00:46:10.385Z,98864.42
2018-10-18T00:48:39.688Z,98855.33
2018-10-18T00:51:09.308Z,98847.53
2018-10-18T00:53:38.481Z,98844.58
2018-10-18T00:56:07.749Z,98849.83
2018-10-18T00:58:36.800Z,98846.11
2018-10-18T01:01:06.380Z,98842.94
2018-10-18T01:03:35.579Z,98844.52
2018-10-18T01:06:04.927Z,98843.91
2018-10-18T01:08:34.153Z,98840.38
2018-10-18T01:11:03.392Z,98841.71
2018-10-18T01:13:32.566Z,98840.08
2018-10-18T01:16:01.757Z,98843.80
2018-10-18T01:18:30.957Z,98843.80
2018-10-18T01:21:00.129Z,98841.14
2018-10-18T01:23:29.476Z,98847.03
2018-10-18T01:25:58.627Z,98846.45
2018-10-18T01:28:27.910Z,98842.17
2018-10-18T01:30:57.061Z,98840.27
2018-10-18T01:33:26.246Z,98842.11
2018-10-18T01:35:55.437Z,98838.94
2018-10-18T01:38:24.577Z,98840.47
2018-10-18T01:40:53.728Z,98835.22
2018-10-18T01:43:22.867Z,98833.89
2018-10-18T01:45:52.061Z,98839.20
2018-10-18T01:48:21.213Z,98841.29
2018-10-18T01:50:50.374Z,98838.33
2018-10-18T01:53:19.542Z,98843.07
2018-10-18T01:55:48.705Z,98840.66
2018-10-18T01:58:18.353Z,98847.51
2018-10-18T02:00:47.669Z,98844.70
2018-10-18T02:03:16.855Z,98847.94
2018-10-18T02:05:46.034Z,98844.77
2018-10-18T02:08:15.218Z,98846.30
2018-10-18T02:10:44.389Z,98842.20
2018-10-18T02:13:13.537Z,98840.29
2018-10-18T02:15:42.830Z,98846.88
2018-10-18T02:18:12.112Z,98842.83
2018-10-18T02:20:41.169Z,98845.33
2018-10-18T02:23:10.403Z,98847.59
2018-10-18T02:25:39.534Z,98848.30
2018-10-18T02:28:08.702Z,98850.27
2018-10-18T02:30:37.931Z,98848.36
2018-10-18T02:33:07.281Z,98851.16
2018-10-18T02:35:36.475Z,98846.29
2018-10-18T02:38:05.721Z,98847.34
2018-10-18T02:40:35.073Z,98853.25
2018-10-18T02:43:04.614Z,98853.42
2018-10-18T02:45:33.774Z,98855.02
2018-10-18T02:48:03.051Z,98854.75
2018-10-18T02:50:32.131Z,98844.27
2018-10-18T02:53:01.308Z,98851.66
2018-10-18T02:55:30.426Z,98847.36
2018-10-18T02:57:59.573Z,98849.00
2018-10-18T03:00:28.764Z,98854.00
2018-10-18T03:02:57.900Z,98852.38
2018-10-18T03:05:27.040Z,98850.26
2018-10-18T03:07:56.259Z,98846.34
2018-10-18T03:10:25.461Z,98854.58
2018-10-18T03:12:54.578Z,98861.83
2018-10-18T03:15:23.761Z,98857.84
2018-10-18T03:17:52.909Z,98862.04
2018-10-18T03:20:22.086Z,98867.28
2018-10-18T03:22:51.294Z,98862.99
2018-10-18T03:25:20.427Z,98867.59
2018-10-18T03:27:49.587Z,98865.27
2018-10-18T03:30:18.861Z,98867.42
2018-10-18T03:32:47.920Z,98866.09
2018-10-18T03:35:17.056Z,98870.69
2018-10-18T03:37:46.215Z,98873.34
2018-10-18T03:40:17.040Z,98872.45
2018-10-18T03:42:46.261Z,98870.97
2018-10-18T03:45:15.694Z,98867.14
2018-10-18T03:47:45.333Z,98872.59
2018-10-18T03:50:14.534Z,98869.16
2018-10-18T03:52:43.813Z,98869.80
2018-10-18T03:55:13.555Z,98873.52
2018-10-18T03:57:43.084Z,98875.05
2018-10-18T04:00:12.402Z,98881.23
2018-10-18T04:02:41.532Z,98877.02
2018-10-18T04:05:11.039Z,98870.11
2018-10-18T04:07:40.262Z,98870.31
2018-10-18T04:10:09.419Z,98878.28
2018-10-18T04:12:38.637Z,98869.97
2018-10-18T04:15:08.409Z,98873.88
2018-10-18T04:17:37.601Z,98668.88
2018-10-18T04:20:07.552Z,98872.69
2018-10-18T04:22:36.739Z,98875.65
2018-10-18T04:25:06.920Z,98879.19
2018-10-18T04:27:36.057Z,98878.66
2018-10-18T04:30:06.069Z,98885.90
2018-10-18T04:32:35.179Z,98877.94
2018-10-18T04:35:04.731Z,98878.82
2018-10-18T04:37:34.020Z,98876.38
2018-10-18T04:40:03.130Z,98876.61
2018-10-18T04:42:32.291Z,98877.05
2018-10-18T04:45:01.440Z,98881.98
2018-10-18T04:47:34.237Z,98878.95
2018-10-18T04:50:03.419Z,98871.73
2018-10-18T04:52:32.620Z,98875.20
2018-10-18T04:55:01.900Z,98882.86
2018-10-18T04:57:31.045Z,98882.66
2018-10-18T05:00:00.151Z,98882.93
2018-10-18T05:02:29.373Z,98884.56
2018-10-18T05:05:09.810Z,98880.28
2018-10-18T05:07:38.998Z,98890.45
2018-10-18T05:10:08.170Z,98888.23
2018-10-18T05:12:37.387Z,98889.88
2018-10-18T05:15:07.885Z,98892.53
2018-10-18T05:17:37.775Z,98892.60
2018-10-18T05:20:07.165Z,98898.93
2018-10-18T05:22:36.302Z,98895.77
2018-10-18T05:25:05.989Z,98900.64
2018-10-18T05:27:35.117Z,98899.10
2018-10-18T05:30:04.739Z,98900.44
2018-10-18T05:32:33.885Z,98902.85
2018-10-18T05:35:05.238Z,98902.55
2018-10-18T05:37:34.557Z,98885.45
2018-10-18T05:40:03.644Z,98911.84
2018-10-18T05:42:32.781Z,98913.78
2018-10-18T05:45:01.959Z,98914.05
2018-10-18T05:47:31.084Z,98910.89
2018-10-18T05:50:00.323Z,98923.66
2018-10-18T05:52:29.489Z,98931.45
2018-10-18T05:54:58.725Z,98928.52
2018-10-18T05:57:27.948Z,98932.72
2018-10-18T05:59:57.215Z,98935.16
2018-10-18T06:02:26.407Z,98937.66
2018-10-18T06:04:55.635Z,98935.89
2018-10-18T06:07:24.868Z,98931.39
2018-10-18T06:09:54.160Z,98932.28
2018-10-18T06:12:23.337Z,98934.56
2018-10-18T06:14:52.594Z,98947.85
2018-10-18T06:17:22.353Z,98953.03
2018-10-18T06:19:51.583Z,98955.52
2018-10-18T06:22:20.940Z,98947.99
2018-10-18T06:24:50.219Z,98955.83
2018-10-18T06:27:19.493Z,98954.47
2018-10-18T06:29:48.695Z,98955.28
2018-10-18T06:32:17.908Z,98952.56
2018-10-18T06:34:47.147Z,98950.78
2018-10-18T06:37:16.460Z,98951.64
2018-10-18T06:39:45.593Z,98958.79
2018-10-18T06:42:14.828Z,98952.82
2018-10-18T06:44:44.374Z,98960.34
2018-10-18T06:47:13.675Z,98952.80
2018-10-18T06:49:42.951Z,98954.53
2018-10-18T06:52:12.219Z,98961.34
2018-10-18T06:54:41.464Z,98963.08
2018-10-18T06:57:10.722Z,98962.75
2018-10-18T06:59:39.932Z,98964.51
2018-10-18T07:02:10.758Z,98964.72
2018-10-18T07:04:40.015Z,98961.22
2018-10-18T07:07:09.313Z,98963.48
2018-10-18T07:09:38.585Z,98968.66
2018-10-18T07:12:08.115Z,98959.25
2018-10-18T07:14:37.420Z,98958.30
2018-10-18T07:17:06.811Z,98965.16
2018-10-18T07:19:36.363Z,98964.00
2018-10-18T07:22:05.652Z,98972.67
2018-10-18T07:24:34.878Z,98966.84
2018-10-18T07:27:04.197Z,98968.01
2018-10-18T07:29:33.407Z,98965.45
2018-10-18T07:32:02.633Z,98967.14
2018-10-18T07:34:31.856Z,98961.41
2018-10-18T07:37:01.136Z,98959.89
2018-10-18T07:39:30.326Z,98966.63
2018-10-18T07:41:59.658Z,98958.04
2018-10-18T07:44:28.879Z,98961.32
2018-10-18T07:46:58.279Z,98967.34
2018-10-18T07:49:27.352Z,98953.49
2018-10-18T07:51:56.670Z,98962.28
2018-10-18T07:54:25.886Z,98962.81
2018-10-18T07:56:55.111Z,98966.05
2018-10-18T07:59:24.317Z,98967.55
2018-10-18T08:01:53.575Z,98968.67
2018-10-18T08:04:22.866Z,98965.81
2018-10-18T08:06:52.076Z,98962.56
2018-10-18T08:09:21.295Z,98962.98
2018-10-18T08:11:50.550Z,98956.83
2018-10-18T08:14:19.778Z,98962.13
2018-10-18T08:16:49.011Z,98958.69
2018-10-18T08:19:18.358Z,98961.20
2018-10-18T08:21:47.478Z,98970.14
2018-10-18T08:24:16.691Z,98960.30
2018-10-18T08:26:45.942Z,98961.09
2018-10-18T08:29:15.146Z,98958.00
2018-10-18T08:31:44.350Z,98948.84
2018-10-18T08:34:13.585Z,98951.08
2018-10-18T08:36:42.800Z,98950.56
2018-10-18T08:39:12.463Z,98949.53
2018-10-18T08:41:41.944Z,98949.41
2018-10-18T08:44:11.292Z,98947.41
2018-10-18T08:46:40.512Z,98944.20
2018-10-18T08:49:09.800Z,98945.01
2018-10-18T08:51:39.017Z,98948.35
2018-10-18T08:54:08.318Z,98939.97
2018-10-18T08:56:37.599Z,98936.70
2018-10-18T08:59:06.877Z,98943.23
2018-10-18T09:01:36.131Z,98937.12
2018-10-18T09:04:05.491Z,98940.95
2018-10-18T09:06:34.698Z,98941.54
2018-10-18T09:09:07.102Z,98935.68
2018-10-18T09:11:36.385Z,98937.84
2018-10-18T09:14:07.206Z,98939.49
2018-10-18T09:16:36.448Z,98930.31
2018-10-18T09:19:07.176Z,98933.81
2018-10-18T09:21:36.392Z,98933.80
2018-10-18T09:24:06.072Z,98932.50
2018-10-18T09:26:35.334Z,98926.02
2018-10-18T09:29:04.639Z,98921.12
2018-10-18T09:31:33.892Z,98911.61
2018-10-18T09:34:03.125Z,98912.04
2018-10-18T09:36:32.529Z,98916.19
2018-10-18T09:39:01.796Z,98917.05
2018-10-18T09:41:31.096Z,98918.87
2018-10-18T09:44:04.514Z,98918.55
2018-10-18T09:46:35.040Z,98922.81
2018-10-18T09:49:04.752Z,98921.39
2018-10-18T09:51:34.076Z,98927.37
2018-10-18T09:54:03.943Z,98919.47
2018-10-18T09:56:33.626Z,98913.23
2018-10-18T09:59:03.280Z,98908.74
2018-10-18T10:01:37.743Z,98915.17
2018-10-18T10:04:07.018Z,98903.87
2018-10-18T10:06:36.394Z,98906.00
2018-10-18T10:09:07.662Z,98902.23
2018-10-18T10:11:36.940Z,98893.25
2018-10-18T10:14:06.275Z,98895.66
2018-10-18T10:16:35.498Z,98895.33
2018-10-18T10:19:04.979Z,98898.11
2018-10-18T10:21:34.191Z,98897.44
2018-10-18T10:24:03.389Z,98892.45
2018-10-18T10:26:32.644Z,98885.56
2018-10-18T10:29:01.871Z,98882.77
2018-10-18T10:31:31.218Z,98879.10
2018-10-18T10:34:00.452Z,98874.97
2018-10-18T10:36:29.753Z,98867.59
2018-10-18T10:38:59.018Z,98876.81
2018-10-18T10:41:28.174Z,98863.03
2018-10-18T10:43:57.387Z,98876.36
2018-10-18T10:46:27.191Z,98863.20
2018-10-18T10:48:56.477Z,98863.30
2018-10-18T10:51:25.714Z,98861.17
2018-10-18T10:53:55.010Z,98861.70
2018-10-18T10:56:24.203Z,98855.66
2018-10-18T10:58:54.312Z,98853.84
2018-10-18T11:01:25.698Z,98858.11
2018-10-18T11:03:56.642Z,98853.17
2018-10-18T11:06:26.342Z,98851.64
2018-10-18T11:08:55.610Z,98849.66
2018-10-18T11:11:24.906Z,98841.66
2018-10-18T11:13:54.191Z,98834.02
2018-10-18T11:16:27.055Z,98831.30
2018-10-18T11:18:56.496Z,98831.47
2018-10-18T11:21:26.648Z,98826.77
2018-10-18T11:23:55.882Z,98828.72
2018-10-18T11:26:25.113Z,98826.53
2018-10-18T11:28:54.389Z,98825.24
2018-10-18T11:31:23.602Z,98820.53
2018-10-18T11:33:52.851Z,98818.27
2018-10-18T11:36:22.073Z,98817.92
2018-10-18T11:38:51.343Z,98808.53
2018-10-18T11:41:28.043Z,98805.67
2018-10-18T11:44:04.777Z,98799.80
2018-10-18T11:46:41.473Z,98797.61
2018-10-18T11:49:18.207Z,98798.79
2018-10-18T11:51:55.252Z,98793.77
2018-10-18T11:54:31.860Z,98797.73
2018-10-18T11:57:09.790Z,98794.13
2018-10-18T11:59:39.164Z,98786.25
2018-10-18T12:02:08.530Z,98780.41
2018-10-18T12:04:37.645Z,98785.41
2018-10-18T12:07:06.957Z,98783.80
2018-10-18T12:09:36.193Z,98779.61
2018-10-18T12:12:05.459Z,98773.58
2018-10-18T12:14:34.669Z,98776.67
2018-10-18T12:17:03.945Z,98773.26
2018-10-18T12:19:33.095Z,98767.73
2018-10-18T12:22:02.324Z,98773.89
2018-10-18T12:24:31.648Z,98772.59
2018-10-18T12:27:00.894Z,98767.99
2018-10-18T12:29:30.079Z,98764.72
2018-10-18T12:31:59.347Z,98766.87
2018-10-18T12:34:28.529Z,98764.00
2018-10-18T12:36:57.744Z,98765.23
2018-10-18T12:39:27.040Z,98764.48
2018-10-18T12:41:56.331Z,98765.10
2018-10-18T12:44:29.111Z,98759.48
2018-10-18T12:46:58.345Z,98757.70
2018-10-18T12:49:27.604Z,98757.58
2018-10-18T12:51:56.858Z,98761.90
2018-10-18T12:54:26.092Z,98765.09
2018-10-18T12:56:55.381Z,98768.22
2018-10-18T12:59:24.591Z,98761.51
2018-10-18T13:01:53.863Z,98768.30
2018-10-18T13:04:23.210Z,98767.33
2018-10-18T13:06:52.436Z,98759.97
2018-10-18T13:09:21.725Z,98761.45
2018-10-18T13:11:50.902Z,98759.42
2018-10-18T13:14:20.130Z,98754.32
2018-10-18T13:16:49.334Z,98754.61
2018-10-18T13:19:18.606Z,98754.86
2018-10-18T13:21:47.910Z,98760.20
2018-10-18T13:24:17.210Z,98757.98
2018-10-18T13:26:46.372Z,98761.89
2018-10-18T13:29:15.742Z,98756.95
2018-10-18T13:31:44.933Z,98744.33
2018-10-18T13:34:14.251Z,98755.33
2018-10-18T13:36:43.410Z,98759.28
2018-10-18T13:39:15.197Z,98758.56
2018-10-18T13:41:44.359Z,98753.49
2018-10-18T13:44:13.652Z,98754.39
2018-10-18T13:46:42.896Z,98756.26
2018-10-18T13:49:12.142Z,98761.88
2018-10-18T13:51:41.430Z,98755.55
2018-10-18T13:54:10.683Z,98757.85
2018-10-18T13:56:39.891Z,98756.88
2018-10-18T13:59:20.118Z,98756.01
2018-10-18T14:01:49.323Z,98754.17
2018-10-18T14:04:18.555Z,98757.97
2018-10-18T14:06:48.379Z,98759.81
2018-10-18T14:09:17.625Z,98761.14
2018-10-18T14:11:46.831Z,98762.52
2018-10-18T14:14:16.144Z,98754.97
2018-10-18T14:16:45.381Z,98757.63
2018-10-18T14:19:14.579Z,98761.91
2018-10-18T14:21:43.888Z,98761.14
2018-10-18T14:24:13.121Z,98755.67
2018-10-18T14:26:42.522Z,98752.95
2018-10-18T14:29:11.892Z,98751.52
2018-10-18T14:31:41.033Z,98751.63
2018-10-18T14:34:10.251Z,98757.53
2018-10-18T14:36:39.471Z,98758.63
2018-10-18T14:39:09.429Z,98761.64
2018-10-18T14:41:38.906Z,98759.05
2018-10-18T14:44:08.134Z,98761.34
2018-10-18T14:46:37.346Z,98760.43
2018-10-18T14:49:07.006Z,98754.63
2018-10-18T14:51:36.254Z,98751.44
2018-10-18T14:54:05.543Z,98753.94
2018-10-18T14:56:34.762Z,98753.77
2018-10-18T14:59:04.050Z,98752.23
2018-10-18T15:01:33.310Z,98754.44
2018-10-18T15:04:02.554Z,98760.98
2018-10-18T15:06:31.821Z,98751.63
2018-10-18T15:09:01.047Z,98760.88
2018-10-18T15:11:30.285Z,98759.39
2018-10-18T15:13:59.509Z,98754.05
2018-10-18T15:16:28.768Z,98756.34
2018-10-18T15:18:57.972Z,98759.97
2018-10-18T15:21:27.711Z,98755.01
2018-10-18T15:23:57.045Z,98765.92
2018-10-18T15:26:26.351Z,98759.61
2018-10-18T15:28:55.511Z,98766.46
2018-10-18T15:31:24.789Z,98766.13
2018-10-18T15:33:53.994Z,98763.30
2018-10-18T15:36:23.213Z,98764.01
2018-10-18T15:38:52.559Z,98762.55
2018-10-18T15:41:21.666Z,98764.63
2018-10-18T15:43:50.974Z,98775.56
2018-10-18T15:46:20.623Z,98773.81
2018-10-18T15:48:49.829Z,98778.84
2018-10-18T15:51:19.083Z,98782.23
2018-10-18T15:53:48.275Z,98784.48
2018-10-18T15:56:17.642Z,98782.70
2018-10-18T15:58:46.880Z,98788.77
2018-10-18T16:01:17.352Z,98788.06
2018-10-18T16:03:47.620Z,98792.03
2018-10-18T16:06:16.908Z,98794.56
2018-10-18T16:08:46.203Z,98799.23
2018-10-18T16:11:15.340Z,98800.36
2018-10-18T16:13:44.565Z,98801.48
2018-10-18T16:16:13.797Z,98801.80
2018-10-18T16:18:43.022Z,98803.19
2018-10-18T16:21:12.306Z,98809.41
2018-10-18T16:23:41.558Z,98809.45
2018-10-18T16:26:10.946Z,98820.25
2018-10-18T16:28:39.993Z,98818.16
2018-10-18T16:31:09.358Z,98822.52
2018-10-18T16:33:39.624Z,98830.34
2018-10-18T16:36:08.835Z,98829.02
2018-10-18T16:38:38.091Z,98831.20
2018-10-18T16:41:07.801Z,98834.69
2018-10-18T16:43:36.758Z,98839.55
2018-10-18T16:46:06.469Z,98844.34
2018-10-18T16:48:35.789Z,98848.09
2018-10-18T16:51:05.193Z,98850.79
2018-10-18T16:53:34.537Z,98850.55
2018-10-18T16:56:04.105Z,98856.17
2018-10-18T16:58:33.302Z,98854.81
2018-10-18T17:01:02.651Z,98862.33
2018-10-18T17:03:31.855Z,98867.14
2018-10-18T17:06:01.162Z,98869.53
2018-10-18T17:08:30.326Z,98872.48
2018-10-18T17:10:59.554Z,98874.34
2018-10-18T17:13:28.827Z,98876.50
2018-10-18T17:15:58.458Z,98886.13
2018-10-18T17:18:27.693Z,98880.17
2018-10-18T17:20:56.959Z,98882.00
2018-10-18T17:23:26.175Z,98882.75
2018-10-18T17:25:55.412Z,98887.87
2018-10-18T17:28:25.043Z,98894.57
2018-10-18T17:30:54.307Z,98892.94
2018-10-18T17:33:23.512Z,98895.84
2018-10-18T17:35:52.898Z,98892.34
2018-10-18T17:38:22.645Z,98895.78
2018-10-18T17:40:51.931Z,98899.55
2018-10-18T17:43:21.227Z,98894.96
2018-10-18T17:45:50.454Z,98894.14
2018-10-18T17:48:19.665Z,98898.67
2018-10-18T17:50:48.954Z,98905.09
2018-10-18T17:53:18.163Z,98911.48
2018-10-18T17:55:47.396Z,98911.98
2018-10-18T17:58:16.736Z,98915.67
2018-10-18T18:00:45.849Z,98921.55
2018-10-18T18:03:15.929Z,98923.34
2018-10-18T18:05:45.224Z,98917.94
2018-10-18T18:08:14.730Z,98916.53
2018-10-18T18:10:45.253Z,98916.27
2018-10-18T18:13:15.242Z,98915.98
2018-10-18T18:15:44.512Z,98921.83
2018-10-18T18:18:13.787Z,98928.22
2018-10-18T18:20:43.109Z,98930.64
2018-10-18T18:23:12.350Z,98927.92
2018-10-18T18:25:41.573Z,98923.00
2018-10-18T18:28:10.759Z,98935.00
2018-10-18T18:30:39.926Z,98934.98
2018-10-18T18:33:09.255Z,98936.01
2018-10-18T18:35:38.415Z,98937.06
2018-10-18T18:38:07.572Z,98945.83
2018-10-18T18:40:37.919Z,98937.70
2018-10-18T18:43:07.324Z,98952.08
2018-10-18T18:45:37.075Z,98944.77
2018-10-18T18:48:06.407Z,98953.34
2018-10-18T18:50:35.603Z,98956.30
2018-10-18T18:53:05.019Z,98957.41
2018-10-18T18:55:34.192Z,98960.38
2018-10-18T18:58:03.362Z,98958.98
2018-10-18T19:00:32.534Z,98962.67
2018-10-18T19:03:01.744Z,98961.81
2018-10-18T19:05:31.133Z,98963.12
2018-10-18T19:08:00.282Z,98959.80
2018-10-18T19:10:29.449Z,98961.34
2018-10-18T19:12:58.678Z,98966.67
2018-10-18T19:15:27.930Z,98969.02
2018-10-18T19:17:57.124Z,98964.66
2018-10-18T19:20:26.407Z,98980.20
2018-10-18T19:22:55.633Z,98974.25
2018-10-18T19:25:25.062Z,98977.84
2018-10-18T19:27:54.261Z,98981.49
2018-10-18T19:30:23.479Z,98992.19
2018-10-18T19:32:52.645Z,98994.42
2018-10-18T19:35:21.854Z,98995.11
2018-10-18T19:37:51.038Z,98999.82
2018-10-18T19:40:20.184Z,98994.66
2018-10-18T19:42:49.417Z,98994.11
2018-10-18T19:45:18.737Z,98997.82
2018-10-18T19:47:47.895Z,99002.42
2018-10-18T19:50:17.155Z,99000.53
2018-10-18T19:52:46.444Z,98997.08
2018-10-18T19:55:15.467Z,99008.66
2018-10-18T19:57:44.639Z,99008.88
2018-10-18T20:00:13.823Z,99014.14
2018-10-18T20:02:42.988Z,99012.41
2018-10-18T20:05:12.166Z,99016.86
2018-10-18T20:07:41.387Z,99018.19
2018-10-18T20:10:10.545Z,99019.23
2018-10-18T20:12:39.752Z,99020.82
2018-10-18T20:15:09.194Z,99014.62
2018-10-18T20:17:38.414Z,99020.03
2018-10-18T20:20:09.058Z,99015.94
2018-10-18T20:22:38.253Z,99019.13
2018-10-18T20:25:08.823Z,99025.29
2018-10-18T20:27:38.014Z,99018.31
2018-10-18T20:30:09.989Z,99026.06
2018-10-18T20:32:39.419Z,99024.91
2018-10-18T20:35:09.130Z,99028.91
2018-10-18T20:37:38.699Z,99028.95
2018-10-18T20:40:10.555Z,99028.73
2018-10-18T20:42:40.066Z,99027.40
2018-10-18T20:45:13.654Z,99033.77
2018-10-18T20:47:43.363Z,99039.42
2018-10-18T20:50:13.188Z,99045.23
2018-10-18T20:52:42.828Z,99040.50
2018-10-18T20:55:11.983Z,99040.32
2018-10-18T20:57:41.155Z,99038.55
2018-10-18T21:00:10.603Z,99043.16
2018-10-18T21:02:39.650Z,99038.16
2018-10-18T21:05:09.074Z,99048.36
2018-10-18T21:07:38.277Z,99045.92
2018-10-18T21:10:07.517Z,99044.84
2018-10-18T21:12:36.705Z,99048.89
2018-10-18T21:15:06.136Z,99043.58
2018-10-18T21:17:35.359Z,99045.78
2018-10-18T21:20:04.648Z,99051.68
2018-10-18T21:22:33.833Z,99051.20
2018-10-18T21:25:04.315Z,99050.08
2018-10-18T21:27:33.562Z,99049.41
2018-10-18T21:30:02.782Z,99046.17
2018-10-18T21:32:31.964Z,99047.46
2018-10-18T21:35:01.129Z,99048.71
2018-10-18T21:37:30.305Z,99047.65
2018-10-18T21:39:59.477Z,99042.00
2018-10-18T21:42:28.672Z,99044.12
2018-10-18T21:44:58.062Z,99039.03
2018-10-18T21:47:27.323Z,99042.00
2018-10-18T21:49:56.567Z,99046.56
2018-10-18T21:52:25.772Z,99044.20
2018-10-18T21:54:54.957Z,99041.02
2018-10-18T21:57:24.122Z,99045.62
2018-10-18T21:59:54.318Z,99042.91
2018-10-18T22:02:23.491Z,99045.75
2018-10-18T22:04:52.656Z,99049.23
2018-10-18T22:07:21.872Z,99046.31
2018-10-18T22:09:51.021Z,99050.87
2018-10-18T22:12:20.191Z,99052.98
2018-10-18T22:14:49.383Z,99048.98
2018-10-18T22:17:18.560Z,99053.80
2018-10-18T22:19:47.800Z,99059.39
2018-10-18T22:22:17.014Z,99049.53
2018-10-18T22:24:46.177Z,99053.80
2018-10-18T22:27:15.415Z,99055.44
2018-10-18T22:29:44.588Z,99056.47
2018-10-18T22:32:13.768Z,99058.88
2018-10-18T22:34:43.275Z,99061.77
2018-10-18T22:37:12.514Z,99057.42
2018-10-18T22:39:41.721Z,99059.41
2018-10-18T22:42:12.229Z,99057.11
2018-10-18T22:44:41.406Z,99057.76
2018-10-18T22:47:10.595Z,99056.97
2018-10-18T22:49:39.779Z,99054.58
2018-10-18T22:52:09.000Z,99060.25
2018-10-18T22:54:38.214Z,99061.89
2018-10-18T22:57:07.566Z,99059.22
2018-10-18T22:59:36.784Z,99059.22
2018-10-18T23:02:05.963Z,99060.30
2018-10-18T23:04:35.123Z,99055.31
2018-10-18T23:07:04.348Z,99052.17
2018-10-18T23:09:33.568Z,99057.63
2018-10-18T23:12:02.762Z,99056.30
2018-10-18T23:14:31.970Z,99049.88
2018-10-18T23:17:01.165Z,99056.09
2018-10-18T23:19:30.273Z,99055.82
2018-10-18T23:21:59.465Z,99055.30
2018-10-18T23:24:28.703Z,99052.08
2018-10-18T23:26:57.897Z,99053.76
2018-10-18T23:29:27.110Z,99049.45
2018-10-18T23:31:56.295Z,99048.94
2018-10-18T23:34:25.492Z,99052.08
2018-10-18T23:36:54.670Z,99045.14
2018-10-18T23:39:23.850Z,99044.33
2018-10-18T23:41:53.051Z,99045.66
2018-10-18T23:44:22.241Z,99042.48
2018-10-18T23:46:51.437Z,99046.70
2018-10-18T23:49:20.599Z,99050.95
2018-10-18T23:51:49.808Z,99041.67
2018-10-18T23:54:19.080Z,99043.99
2018-10-18T23:56:48.772Z,99045.58
2018-10-18T23:59:17.950Z,99037.62
